Hauptseite
METAR-TAF:

METAR-TAF

Flughäfen :

Aberdeen, Maryland, Vereinigte Staaten

Breite: 39-28N, Länge: 076-10W, Höhe: 18 m

Beobachtung

Neuester Wetterbericht von vor 1 Stunde und 0 Minuten, um 21:46 UTC
Wind 5 kt aus Süd
Temperatur 8°C
Luftfeuchtigkeit 100%
Luftdruck 1012 hPa
Sichtweite: 3.2 km
Geschlossene Wolkendecke in der Höhe von 300 ft
Leichtregen, feuchter Dunst

METAR: KAPG 092146Z 18005KT 2SM -RA BR OVC003 08/08 A2987 RMK SLP118

Zeit: 17:46 (22:46 UTC)


TAF: fehlend

Wetterbeobachtungen und Prognosen von mehr als 4000 Flughäfen (METAR und TAF Bericht).

Die verfügbaren Stationen werden durch gelbe und rote Markierungen auf der Karte dargestellt.

Führen Sie die Maus auf sie, um den Namen der Station zu sehen.

Darauf klicken, um die Beobachtung von Wetterbeobachtungen und Prognosen zu sehen.

Um die Karte zu ändern : klicken Sie auf den grünen Tasten mit einem schwarzen Kreuz Zum Vergrößern, auf den grünen Button mit einem Gedankenstrich zu verkleinern, oder auf die grünen Pfeile für benachbarte Karten.


METAR-TAF: